createdAt,value
2023-08-22T00:00:20.009Z,2.15
2023-08-22T00:03:07.627Z,2.20
2023-08-22T00:05:55.063Z,2.20
2023-08-22T00:08:44.537Z,2.05
2023-08-22T00:11:31.746Z,2.67
2023-08-22T00:14:19.333Z,2.25
2023-08-22T00:17:06.816Z,2.25
2023-08-22T00:19:54.631Z,2.45
2023-08-22T00:22:42.616Z,2.60
2023-08-22T00:25:31.625Z,2.20
2023-08-22T00:28:19.026Z,1.95
2023-08-22T00:31:06.440Z,2.20
2023-08-22T00:33:53.853Z,2.10
2023-08-22T00:36:41.364Z,2.13
2023-08-22T00:39:29.031Z,2.33
2023-08-22T00:42:17.867Z,2.47
2023-08-22T00:45:05.730Z,2.20
2023-08-22T00:47:53.566Z,2.20
2023-08-22T00:50:41.001Z,2.05
2023-08-22T00:53:28.788Z,2.10
2023-08-22T00:56:16.722Z,2.20
2023-08-22T00:59:05.865Z,1.98
2023-08-22T01:01:53.549Z,1.75
2023-08-22T01:04:40.824Z,2.40
2023-08-22T01:07:34.763Z,2.38
2023-08-22T01:10:29.596Z,2.00
2023-08-22T01:13:21.800Z,2.40
2023-08-22T01:16:11.081Z,2.10
2023-08-22T01:19:02.122Z,2.17
2023-08-22T01:21:52.257Z,2.33
2023-08-22T01:24:41.398Z,2.47
2023-08-22T01:27:37.885Z,2.10
2023-08-22T01:30:32.827Z,2.22
2023-08-22T01:33:27.757Z,1.98
2023-08-22T01:36:17.505Z,2.80
2023-08-22T01:39:08.940Z,2.53
2023-08-22T01:41:57.628Z,2.13
2023-08-22T01:44:45.648Z,2.25
2023-08-22T01:47:33.002Z,2.47
2023-08-22T01:50:20.765Z,2.30
2023-08-22T01:53:09.370Z,1.75
2023-08-22T01:56:01.479Z,2.08
2023-08-22T01:58:48.603Z,2.08
2023-08-22T02:01:36.260Z,2.10
2023-08-22T02:04:24.681Z,2.92
2023-08-22T02:07:12.050Z,2.92
2023-08-22T02:10:00.172Z,2.33
2023-08-22T02:12:48.747Z,2.63
2023-08-22T02:15:35.998Z,2.40
2023-08-22T02:18:23.364Z,2.50
2023-08-22T02:21:10.785Z,1.98
2023-08-22T02:23:58.324Z,2.30
2023-08-22T02:26:46.947Z,2.40
2023-08-22T02:29:35.454Z,2.17
2023-08-22T02:32:22.580Z,2.35
2023-08-22T02:35:10.477Z,2.97
2023-08-22T02:37:58.017Z,2.88
2023-08-22T02:40:45.482Z,2.83
2023-08-22T02:43:33.080Z,2.40
2023-08-22T02:46:23.140Z,2.40
2023-08-22T02:49:10.428Z,2.22
2023-08-22T02:51:57.800Z,2.63
2023-08-22T02:54:45.918Z,2.55
2023-08-22T02:57:34.452Z,2.60
2023-08-22T03:00:22.102Z,2.30
2023-08-22T03:03:10.528Z,2.35
2023-08-22T03:05:59.737Z,2.60
2023-08-22T03:08:47.152Z,2.53
2023-08-22T03:11:34.622Z,2.33
2023-08-22T03:14:22.449Z,2.35
2023-08-22T03:17:09.728Z,3.03
2023-08-22T03:19:59.756Z,2.97
2023-08-22T03:22:46.983Z,2.17
2023-08-22T03:25:34.827Z,3.00
2023-08-22T03:28:22.342Z,2.30
2023-08-22T03:31:10.066Z,2.63
2023-08-22T03:33:57.425Z,2.28
2023-08-22T03:36:46.161Z,2.92
2023-08-22T03:39:35.035Z,2.40
2023-08-22T03:42:22.460Z,2.50
2023-08-22T03:45:11.559Z,2.42
2023-08-22T03:48:04.699Z,1.90
2023-08-22T03:50:53.449Z,2.20
2023-08-22T03:53:42.298Z,2.35
2023-08-22T03:56:29.527Z,2.20
2023-08-22T03:59:16.981Z,2.35
2023-08-22T04:02:04.499Z,2.47
2023-08-22T04:04:51.843Z,2.30
2023-08-22T04:07:40.500Z,2.17
2023-08-22T04:10:29.821Z,2.20
2023-08-22T04:13:17.002Z,2.33
2023-08-22T04:16:04.499Z,1.98
2023-08-22T04:18:51.960Z,2.15
2023-08-22T04:21:39.513Z,2.53
2023-08-22T04:24:26.996Z,2.20
2023-08-22T04:27:16.343Z,2.35
2023-08-22T04:30:04.763Z,2.17
2023-08-22T04:32:52.455Z,2.13
2023-08-22T04:35:40.219Z,2.40
2023-08-22T04:38:27.646Z,2.17
2023-08-22T04:41:17.192Z,2.22
2023-08-22T04:44:32.039Z,1.90
2023-08-22T04:47:19.218Z,1.80
2023-08-22T04:50:08.467Z,2.08
2023-08-22T04:52:55.957Z,1.88
2023-08-22T04:55:43.543Z,2.15
2023-08-22T04:58:30.954Z,2.17
2023-08-22T05:01:19.863Z,1.92
2023-08-22T05:04:07.536Z,1.90
2023-08-22T05:06:55.056Z,2.17
2023-08-22T05:09:43.038Z,2.47
2023-08-22T05:12:30.542Z,2.00
2023-08-22T05:15:18.314Z,2.13
2023-08-22T05:18:10.024Z,2.38
2023-08-22T05:20:57.048Z,2.00
2023-08-22T05:23:44.840Z,1.38
2023-08-22T05:26:33.652Z,2.00
2023-08-22T05:29:21.803Z,2.10
2023-08-22T05:32:09.397Z,2.00
2023-08-22T05:34:58.020Z,2.00
2023-08-22T05:37:45.424Z,2.00
2023-08-22T05:40:33.087Z,2.33
2023-08-22T05:43:20.465Z,1.90
2023-08-22T05:46:07.906Z,1.80
2023-08-22T05:48:56.511Z,1.85
2023-08-22T05:51:45.641Z,1.90
2023-08-22T05:54:34.154Z,2.95
2023-08-22T05:57:23.895Z,2.40
2023-08-22T06:00:13.802Z,2.10
2023-08-22T06:03:14.110Z,1.73
2023-08-22T06:06:01.530Z,1.77
2023-08-22T06:08:51.274Z,1.60
2023-08-22T06:11:38.608Z,2.03
2023-08-22T06:14:26.195Z,1.92
2023-08-22T06:17:13.995Z,1.67
2023-08-22T06:20:01.808Z,1.67
2023-08-22T06:22:50.591Z,2.08
2023-08-22T06:25:39.601Z,1.88
2023-08-22T06:28:27.387Z,1.70
2023-08-22T06:31:15.416Z,1.88
2023-08-22T06:34:02.957Z,1.50
2023-08-22T06:36:50.270Z,1.70
2023-08-22T06:39:39.299Z,1.88
2023-08-22T06:42:28.004Z,2.10
2023-08-22T06:45:15.224Z,1.55
2023-08-22T06:48:02.725Z,1.80
2023-08-22T06:50:51.090Z,1.60
2023-08-22T06:53:38.258Z,1.85
2023-08-22T06:56:25.641Z,1.50
2023-08-22T06:59:14.231Z,1.60
2023-08-22T07:02:01.570Z,1.67
2023-08-22T07:04:50.171Z,2.03
2023-08-22T07:07:37.502Z,1.70
2023-08-22T07:10:25.239Z,2.13
2023-08-22T07:13:12.512Z,1.58
2023-08-22T07:16:01.574Z,1.50
2023-08-22T07:18:48.975Z,1.23
2023-08-22T07:21:36.436Z,1.40
2023-08-22T07:24:24.778Z,1.50
2023-08-22T07:27:13.089Z,1.60
2023-08-22T07:30:00.508Z,1.60
2023-08-22T07:32:49.534Z,1.50
2023-08-22T07:35:36.840Z,1.50
2023-08-22T07:38:23.876Z,1.30
2023-08-22T07:41:11.492Z,1.45
2023-08-22T07:43:58.690Z,1.50
2023-08-22T07:46:46.122Z,1.63
2023-08-22T07:49:34.948Z,1.80
2023-08-22T07:52:22.385Z,1.50
2023-08-22T07:55:10.397Z,1.70
2023-08-22T07:57:57.496Z,1.67
2023-08-22T08:00:49.007Z,1.58
2023-08-22T08:03:36.495Z,1.70
2023-08-22T08:06:25.410Z,1.42
2023-08-22T08:09:18.939Z,1.52
2023-08-22T08:12:13.342Z,2.90
2023-08-22T08:15:00.579Z,1.60
2023-08-22T08:17:48.144Z,1.80
2023-08-22T08:20:35.626Z,1.60
2023-08-22T08:23:24.483Z,1.75
2023-08-22T08:26:11.941Z,1.50
2023-08-22T08:28:59.736Z,1.88
2023-08-22T08:31:48.412Z,1.83
2023-08-22T08:34:36.871Z,1.50
2023-08-22T08:37:26.546Z,1.90
2023-08-22T08:45:35.586Z,1.60
2023-08-22T08:48:23.893Z,1.77
2023-08-22T08:51:12.029Z,1.98
2023-08-22T08:53:59.873Z,1.80
2023-08-22T08:56:47.362Z,2.15
2023-08-22T08:59:34.808Z,1.60
2023-08-22T09:02:23.733Z,1.48
2023-08-22T09:05:12.833Z,1.50
2023-08-22T09:13:49.682Z,1.35
2023-08-22T09:16:38.040Z,1.52
2023-08-22T09:19:26.495Z,2.17
2023-08-22T09:22:14.975Z,1.75
2023-08-22T09:25:02.462Z,2.00
2023-08-22T09:27:53.253Z,1.50
2023-08-22T09:30:48.900Z,1.75
2023-08-22T09:33:46.949Z,2.05
2023-08-22T09:36:35.860Z,1.83
2023-08-22T09:39:24.613Z,1.52
2023-08-22T09:42:12.410Z,2.28
2023-08-22T09:45:00.701Z,2.08
2023-08-22T09:47:50.748Z,1.70
2023-08-22T09:50:42.992Z,1.50
2023-08-22T09:53:33.770Z,1.60
2023-08-22T09:56:21.729Z,1.90
2023-08-22T09:59:09.552Z,1.90
2023-08-22T10:01:58.557Z,1.73
2023-08-22T10:04:46.705Z,1.80
2023-08-22T10:07:33.914Z,1.75
2023-08-22T10:10:24.519Z,1.73
2023-08-22T10:13:12.786Z,1.95
2023-08-22T10:16:00.721Z,1.52
2023-08-22T10:18:48.276Z,1.85
2023-08-22T10:21:43.641Z,1.90
2023-08-22T10:24:32.387Z,1.60
2023-08-22T10:27:20.989Z,1.63
2023-08-22T10:30:22.002Z,1.70
2023-08-22T10:36:18.835Z,1.73
2023-08-22T10:36:26.398Z,1.80
2023-08-22T10:39:06.928Z,1.80
2023-08-22T10:41:58.191Z,1.90
2023-08-22T10:44:50.792Z,1.80
2023-08-22T10:47:37.990Z,1.80
2023-08-22T10:50:34.483Z,1.80
2023-08-22T10:53:24.427Z,2.15
2023-08-22T10:56:24.146Z,1.80
2023-08-22T10:59:11.310Z,1.77
2023-08-22T11:02:00.137Z,2.10
2023-08-22T11:04:49.348Z,1.80
2023-08-22T11:07:37.068Z,1.85
2023-08-22T11:10:26.630Z,1.70
2023-08-22T11:13:14.084Z,1.90
2023-08-22T11:16:02.687Z,2.13
2023-08-22T11:18:51.814Z,1.92
2023-08-22T11:21:40.716Z,2.10
2023-08-22T11:24:28.064Z,1.95
2023-08-22T11:27:15.897Z,1.88
2023-08-22T11:30:03.491Z,1.80
2023-08-22T11:32:51.381Z,1.80
2023-08-22T11:35:41.970Z,1.90
2023-08-22T11:38:29.224Z,1.83
2023-08-22T11:41:16.770Z,2.20
2023-08-22T11:44:03.995Z,2.22
2023-08-22T11:46:51.749Z,2.22
2023-08-22T11:49:59.757Z,2.13
2023-08-22T11:52:49.907Z,2.28
2023-08-22T11:55:41.589Z,1.95
2023-08-22T11:58:28.882Z,1.90
2023-08-22T12:01:16.388Z,2.00
2023-08-22T12:04:08.281Z,2.10
2023-08-22T12:07:02.088Z,2.00
2023-08-22T12:10:00.992Z,1.83
2023-08-22T12:12:48.272Z,1.60
2023-08-22T12:15:36.053Z,2.00
2023-08-22T12:18:30.271Z,2.17
2023-08-22T12:21:17.961Z,1.65
2023-08-22T12:24:06.550Z,1.80
2023-08-22T12:26:55.396Z,1.92
2023-08-22T12:29:43.234Z,1.80
2023-08-22T12:32:32.549Z,1.98
2023-08-22T12:35:21.465Z,1.98
2023-08-22T12:38:09.632Z,1.92
2023-08-22T12:40:58.296Z,1.77
2023-08-22T12:43:47.360Z,1.80
2023-08-22T12:46:34.724Z,2.10
2023-08-22T12:49:21.978Z,2.25
2023-08-22T12:52:09.320Z,1.85
2023-08-22T12:54:56.849Z,1.88
2023-08-22T12:57:44.667Z,2.10
2023-08-22T13:00:33.894Z,2.22
2023-08-22T13:03:21.509Z,2.20
2023-08-22T13:06:09.052Z,1.83
2023-08-22T13:08:59.308Z,2.10
2023-08-22T13:11:46.721Z,1.90
2023-08-22T13:14:34.124Z,1.90
2023-08-22T13:17:22.969Z,1.98
2023-08-22T13:20:11.369Z,2.00
2023-08-22T13:22:58.592Z,1.90
2023-08-22T13:25:46.081Z,2.05
2023-08-22T13:28:33.592Z,1.90
2023-08-22T13:31:21.428Z,2.60
2023-08-22T13:34:10.319Z,2.00
2023-08-22T13:36:57.437Z,2.15
2023-08-22T13:39:45.049Z,2.05
2023-08-22T13:42:32.693Z,2.00
2023-08-22T13:45:20.159Z,1.95
2023-08-22T13:48:07.692Z,1.90
2023-08-22T13:50:56.351Z,2.70
2023-08-22T13:53:43.682Z,2.10
2023-08-22T13:56:32.067Z,2.22
2023-08-22T13:59:19.206Z,2.00
2023-08-22T14:02:06.994Z,2.03
2023-08-22T14:04:54.398Z,1.73
2023-08-22T14:07:43.446Z,1.80
2023-08-22T14:10:31.255Z,1.90
2023-08-22T14:13:18.670Z,2.13
2023-08-22T14:16:06.442Z,2.22
2023-08-22T14:18:53.636Z,2.10
2023-08-22T14:21:47.679Z,1.85
2023-08-22T14:24:37.219Z,1.88
2023-08-22T14:27:26.597Z,2.65
2023-08-22T14:30:15.132Z,2.25
2023-08-22T14:33:02.514Z,2.15
2023-08-22T14:35:49.862Z,2.50
2023-08-22T14:38:37.697Z,2.40
2023-08-22T14:41:28.445Z,2.30
2023-08-22T14:44:16.148Z,2.53
2023-08-22T14:47:03.431Z,2.50
2023-08-22T14:49:50.798Z,2.17
2023-08-22T14:52:38.411Z,2.20
2023-08-22T14:55:26.269Z,2.67
2023-08-22T14:58:15.066Z,2.30
2023-08-22T15:01:02.157Z,2.65
2023-08-22T15:03:50.065Z,2.80
2023-08-22T15:06:37.200Z,2.30
2023-08-22T15:09:24.649Z,2.13
2023-08-22T15:12:12.237Z,3.05
2023-08-22T15:15:01.040Z,3.08
2023-08-22T15:17:48.487Z,5.40
2023-08-22T15:20:37.281Z,2.40
2023-08-22T15:23:25.478Z,3.28
2023-08-22T15:26:12.789Z,2.60
2023-08-22T15:29:00.212Z,2.92
2023-08-22T15:31:49.021Z,2.13
2023-08-22T15:34:36.373Z,2.30
2023-08-22T15:37:23.958Z,2.63
2023-08-22T15:40:11.449Z,2.50
2023-08-22T15:43:00.358Z,2.88
2023-08-22T15:45:48.705Z,2.78
2023-08-22T15:48:37.391Z,2.78
2023-08-22T15:51:24.614Z,2.75
2023-08-22T15:54:12.099Z,2.22
2023-08-22T15:56:59.447Z,2.42
2023-08-22T15:59:46.962Z,2.40
2023-08-22T16:02:34.740Z,2.33
2023-08-22T16:05:23.602Z,2.58
2023-08-22T16:08:11.098Z,2.45
2023-08-22T16:10:58.535Z,2.88
2023-08-22T16:13:46.099Z,2.55
2023-08-22T16:16:33.591Z,2.72
2023-08-22T16:19:23.314Z,2.95
2023-08-22T16:22:11.839Z,3.15
2023-08-22T16:24:59.342Z,2.30
2023-08-22T16:27:46.723Z,2.70
2023-08-22T16:30:35.118Z,2.90
2023-08-22T16:33:23.009Z,3.17
2023-08-22T16:36:10.111Z,2.70
2023-08-22T16:38:59.056Z,2.58
2023-08-22T16:41:46.426Z,2.60
2023-08-22T16:44:34.165Z,2.38
2023-08-22T16:47:21.465Z,2.58
2023-08-22T16:50:09.697Z,2.40
2023-08-22T16:52:57.299Z,2.35
2023-08-22T16:55:47.931Z,2.65
2023-08-22T16:58:40.014Z,2.65
2023-08-22T17:01:27.491Z,3.13
2023-08-22T17:04:16.285Z,2.70
2023-08-22T17:07:06.914Z,2.35
2023-08-22T17:09:55.799Z,2.55
2023-08-22T17:12:44.584Z,2.72
2023-08-22T17:15:31.854Z,2.42
2023-08-22T17:18:19.319Z,2.53
2023-08-22T17:21:11.966Z,2.45
2023-08-22T17:23:59.351Z,2.60
2023-08-22T17:26:50.759Z,2.67
2023-08-22T17:29:39.547Z,2.40
2023-08-22T17:32:29.316Z,2.40
2023-08-22T17:35:17.312Z,3.40
2023-08-22T17:38:04.686Z,2.70
2023-08-22T17:40:51.876Z,2.33
2023-08-22T17:43:41.818Z,2.25
2023-08-22T17:46:31.843Z,2.30
2023-08-22T17:49:19.626Z,2.47
2023-08-22T17:52:08.473Z,2.58
2023-08-22T17:54:55.708Z,2.00
2023-08-22T17:57:44.184Z,2.30
2023-08-22T18:00:32.665Z,2.35
2023-08-22T18:03:21.985Z,2.38
2023-08-22T18:06:09.923Z,2.63
2023-08-22T18:08:57.351Z,2.78
2023-08-22T18:11:44.818Z,2.75
2023-08-22T18:14:32.232Z,2.55
2023-08-22T18:17:19.896Z,2.63
2023-08-22T18:20:10.371Z,2.55
2023-08-22T18:22:57.905Z,3.10
2023-08-22T18:25:45.267Z,2.40
2023-08-22T18:28:33.895Z,3.28
2023-08-22T18:31:26.192Z,3.20
2023-08-22T18:34:13.528Z,2.90
2023-08-22T18:37:02.505Z,2.90
2023-08-22T18:39:49.955Z,3.00
2023-08-22T18:42:37.608Z,3.00
2023-08-22T18:45:25.208Z,3.20
2023-08-22T18:48:12.857Z,2.95
2023-08-22T18:51:00.467Z,3.60
2023-08-22T18:53:49.543Z,5.53
2023-08-22T18:56:37.174Z,5.60
2023-08-22T18:59:24.413Z,4.97
2023-08-22T19:02:11.627Z,4.53
2023-08-22T19:04:59.168Z,5.05
2023-08-22T19:07:47.026Z,3.78
2023-08-22T19:10:36.132Z,4.20
2023-08-22T19:13:23.434Z,4.13
2023-08-22T19:16:10.950Z,3.90
2023-08-22T19:18:58.523Z,4.20
2023-08-22T19:21:46.156Z,5.10
2023-08-22T19:24:35.389Z,4.68
2023-08-22T19:27:24.261Z,8.00
2023-08-22T19:30:14.107Z,7.75
2023-08-22T19:33:17.978Z,5.65
2023-08-22T19:36:06.560Z,6.28
2023-08-22T19:38:53.980Z,6.20
2023-08-22T19:41:41.426Z,8.65
2023-08-22T19:44:30.392Z,6.72
2023-08-22T19:47:17.657Z,5.57
2023-08-22T19:50:05.831Z,9.18
2023-08-22T19:52:54.202Z,11.77
2023-08-22T19:55:41.734Z,10.77
2023-08-22T19:58:28.969Z,11.20
2023-08-22T20:01:17.951Z,11.38
2023-08-22T20:04:05.749Z,14.88
2023-08-22T20:06:53.219Z,13.63
2023-08-22T20:09:40.700Z,11.35
2023-08-22T20:12:28.289Z,13.02
2023-08-22T20:15:15.934Z,11.73
2023-08-22T20:18:04.921Z,11.43
2023-08-22T20:20:52.236Z,11.52
2023-08-22T20:23:39.411Z,10.98
2023-08-22T20:26:27.050Z,9.70
2023-08-22T20:29:14.275Z,8.25
2023-08-22T20:32:01.640Z,8.75
2023-08-22T20:34:51.406Z,7.55
2023-08-22T20:37:38.593Z,7.05
2023-08-22T20:40:26.193Z,5.90
2023-08-22T20:43:13.656Z,5.80
2023-08-22T20:46:01.743Z,7.57
2023-08-22T20:48:49.244Z,6.28
2023-08-22T20:51:38.170Z,6.47
2023-08-22T20:54:28.203Z,5.90
2023-08-22T20:57:15.888Z,5.72
2023-08-22T21:00:04.127Z,5.32
2023-08-22T21:02:51.621Z,5.45
2023-08-22T21:05:39.300Z,5.28
2023-08-22T21:08:27.871Z,5.30
2023-08-22T21:11:15.297Z,5.10
2023-08-22T21:14:03.700Z,4.45
2023-08-22T21:16:51.278Z,4.50
2023-08-22T21:19:38.791Z,4.70
2023-08-22T21:22:26.656Z,5.00
2023-08-22T21:25:15.237Z,5.13
2023-08-22T21:28:02.862Z,4.65
2023-08-22T21:30:52.492Z,4.70
2023-08-22T21:33:39.970Z,4.40
2023-08-22T21:36:27.638Z,4.90
2023-08-22T21:39:15.169Z,4.28
2023-08-22T21:42:04.123Z,4.55
2023-08-22T21:44:52.234Z,4.38
2023-08-22T21:47:39.557Z,4.75
2023-08-22T21:50:27.017Z,4.30
2023-08-22T21:53:14.617Z,4.80
2023-08-22T21:56:02.181Z,4.85
2023-08-22T21:58:51.036Z,4.72
2023-08-22T22:01:38.281Z,4.70
2023-08-22T22:04:25.893Z,4.28
2023-08-22T22:07:13.795Z,4.75
2023-08-22T22:10:01.025Z,4.32
2023-08-22T22:12:48.867Z,5.03
2023-08-22T22:15:38.049Z,5.20
2023-08-22T22:18:25.951Z,4.53
2023-08-22T22:21:13.142Z,4.60
2023-08-22T22:24:00.641Z,4.07
2023-08-22T22:26:48.685Z,4.43
2023-08-22T22:29:36.228Z,4.35
2023-08-22T22:32:25.032Z,4.78
2023-08-22T22:35:12.602Z,4.68
2023-08-22T22:38:00.195Z,4.50
2023-08-22T22:40:48.173Z,4.25
2023-08-22T22:43:35.750Z,4.18
2023-08-22T22:46:23.265Z,4.93
2023-08-22T22:49:11.989Z,4.90
2023-08-22T22:51:59.641Z,4.35
2023-08-22T22:54:46.790Z,4.60
2023-08-22T22:57:34.352Z,4.18
2023-08-22T23:00:22.002Z,4.25
2023-08-22T23:03:09.634Z,4.32
2023-08-22T23:06:06.916Z,4.50
2023-08-22T23:08:54.639Z,4.82
2023-08-22T23:12:04.271Z,5.13
2023-08-22T23:14:49.385Z,5.10
2023-08-22T23:17:38.177Z,4.60
2023-08-22T23:20:27.396Z,4.40
2023-08-22T23:23:16.067Z,4.65
2023-08-22T23:26:04.585Z,4.78
2023-08-22T23:28:52.231Z,4.15
2023-08-22T23:31:39.792Z,4.90
2023-08-22T23:34:29.325Z,4.53
2023-08-22T23:37:16.782Z,4.65
2023-08-22T23:43:00.479Z,4.43
2023-08-22T23:45:47.875Z,4.25
2023-08-22T23:48:35.359Z,4.22
2023-08-22T23:51:22.975Z,4.60
2023-08-22T23:54:10.223Z,4.65
2023-08-22T23:56:57.733Z,5.07
2023-08-22T23:59:46.789Z,4.65
